sensor_id;sensor_type;location;lat;lon;timestamp;pressure;altitude;pressure_sealevel;temperature;humidity
50087;BME280;35967;50.718;7.050;2023-04-07T00:05:38;100585.19;;;8.45;100.00
50087;BME280;35967;50.718;7.050;2023-04-07T00:15:41;100590.31;;;8.45;100.00
50087;BME280;35967;50.718;7.050;2023-04-07T00:25:48;100586.09;;;8.43;100.00
50087;BME280;35967;50.718;7.050;2023-04-07T00:35:51;100575.03;;;8.39;100.00
50087;BME280;35967;50.718;7.050;2023-04-07T00:45:57;100568.19;;;8.38;100.00
50087;BME280;35967;50.718;7.050;2023-04-07T00:56:01;100563.97;;;8.37;100.00
50087;BME280;35967;50.718;7.050;2023-04-07T01:06:07;100555.31;;;8.43;100.00
50087;BME280;35967;50.718;7.050;2023-04-07T01:16:16;100552.66;;;8.50;100.00
50087;BME280;35967;50.718;7.050;2023-04-07T01:26:27;100551.66;;;8.61;100.00
50087;BME280;35967;50.718;7.050;2023-04-07T01:36:33;100553.31;;;8.63;100.00
50087;BME280;35967;50.718;7.050;2023-04-07T01:46:36;100565.13;;;8.74;100.00
50087;BME280;35967;50.718;7.050;2023-04-07T01:56:40;100554.84;;;8.75;100.00
50087;BME280;35967;50.718;7.050;2023-04-07T02:06:48;100549.75;;;8.72;100.00
50087;BME280;35967;50.718;7.050;2023-04-07T02:16:58;100553.09;;;8.77;100.00
50087;BME280;35967;50.718;7.050;2023-04-07T02:27:03;100548.03;;;8.74;100.00
50087;BME280;35967;50.718;7.050;2023-04-07T02:37:08;100549.75;;;8.72;100.00
50087;BME280;35967;50.718;7.050;2023-04-07T02:47:11;100559.97;;;8.75;100.00
50087;BME280;35967;50.718;7.050;2023-04-07T02:57:15;100557.44;;;8.72;100.00
50087;BME280;35967;50.718;7.050;2023-04-07T03:07:18;100562.50;;;8.77;100.00
50087;BME280;35967;50.718;7.050;2023-04-07T03:17:26;100565.88;;;8.80;100.00
50087;BME280;35967;50.718;7.050;2023-04-07T03:27:30;100568.38;;;8.85;100.00
50087;BME280;35967;50.718;7.050;2023-04-07T03:37:35;100566.72;;;8.82;100.00
50087;BME280;35967;50.718;7.050;2023-04-07T03:47:42;100568.34;;;8.87;100.00
50087;BME280;35967;50.718;7.050;2023-04-07T03:57:47;100567.78;;;8.69;100.00
50087;BME280;35967;50.718;7.050;2023-04-07T04:07:50;100573.75;;;8.70;100.00
50087;BME280;35967;50.718;7.050;2023-04-07T04:18:15;100582.34;;;8.65;100.00
50087;BME280;35967;50.718;7.050;2023-04-07T04:28:19;100583.31;;;8.60;100.00
50087;BME280;35967;50.718;7.050;2023-04-07T04:38:25;100594.38;;;8.62;100.00
50087;BME280;35967;50.718;7.050;2023-04-07T04:48:36;100597.00;;;8.59;100.00
50087;BME280;35967;50.718;7.050;2023-04-07T04:58:41;100608.19;;;8.56;100.00
50087;BME280;35967;50.718;7.050;2023-04-07T05:09:10;100617.69;;;8.45;100.00
50087;BME280;35967;50.718;7.050;2023-04-07T05:19:23;100622.03;;;8.41;100.00
50087;BME280;35967;50.718;7.050;2023-04-07T05:29:30;100624.59;;;8.41;100.00
50087;BME280;35967;50.718;7.050;2023-04-07T05:39:34;100634.06;;;8.34;100.00
50087;BME280;35967;50.718;7.050;2023-04-07T05:49:39;100638.34;;;8.37;100.00
50087;BME280;35967;50.718;7.050;2023-04-07T05:59:49;100652.19;;;8.22;100.00
50087;BME280;35967;50.718;7.050;2023-04-07T06:09:53;100650.53;;;8.19;100.00
50087;BME280;35967;50.718;7.050;2023-04-07T06:19:57;100660.72;;;8.24;100.00
50087;BME280;35967;50.718;7.050;2023-04-07T06:30:00;100677.88;;;8.20;100.00
50087;BME280;35967;50.718;7.050;2023-04-07T06:40:06;100674.50;;;8.14;100.00
50087;BME280;35967;50.718;7.050;2023-04-07T06:50:10;100691.50;;;8.23;100.00
50087;BME280;35967;50.718;7.050;2023-04-07T07:00:14;100693.13;;;8.31;100.00
50087;BME280;35967;50.718;7.050;2023-04-07T07:10:17;100707.69;;;8.28;100.00
50087;BME280;35967;50.718;7.050;2023-04-07T07:20:24;100713.59;;;8.33;100.00
50087;BME280;35967;50.718;7.050;2023-04-07T07:30:29;100720.50;;;8.29;100.00
50087;BME280;35967;50.718;7.050;2023-04-07T07:40:34;100730.00;;;8.19;100.00
50087;BME280;35967;50.718;7.050;2023-04-07T07:50:37;100742.75;;;8.29;100.00
50087;BME280;35967;50.718;7.050;2023-04-07T08:00:42;100746.09;;;8.34;100.00
50087;BME280;35967;50.718;7.050;2023-04-07T08:10:45;100763.19;;;8.35;100.00
50087;BME280;35967;50.718;7.050;2023-04-07T08:20:50;100767.41;;;8.37;100.00
50087;BME280;35967;50.718;7.050;2023-04-07T08:30:53;100782.88;;;8.30;100.00
50087;BME280;35967;50.718;7.050;2023-04-07T08:41:01;100791.16;;;8.60;100.00
50087;BME280;35967;50.718;7.050;2023-04-07T08:51:06;100790.31;;;8.58;100.00
50087;BME280;35967;50.718;7.050;2023-04-07T09:01:12;100806.59;;;8.53;100.00
50087;BME280;35967;50.718;7.050;2023-04-07T09:11:17;100800.50;;;8.64;100.00
50087;BME280;35967;50.718;7.050;2023-04-07T09:21:21;100813.34;;;8.62;100.00
50087;BME280;35967;50.718;7.050;2023-04-07T09:31:44;100815.81;;;8.70;100.00
50087;BME280;35967;50.718;7.050;2023-04-07T09:41:49;100818.91;;;8.97;100.00
50087;BME280;35967;50.718;7.050;2023-04-07T09:51:55;100826.03;;;8.76;100.00
50087;BME280;35967;50.718;7.050;2023-04-07T10:02:00;100823.34;;;8.87;100.00
50087;BME280;35967;50.718;7.050;2023-04-07T10:12:05;100821.41;;;9.03;100.00
50087;BME280;35967;50.718;7.050;2023-04-07T10:22:11;100823.88;;;9.09;100.00
50087;BME280;35967;50.718;7.050;2023-04-07T10:32:15;100834.28;;;8.98;100.00
50087;BME280;35967;50.718;7.050;2023-04-07T10:42:44;100841.06;;;9.06;100.00
50087;BME280;35967;50.718;7.050;2023-04-07T10:53:01;100851.47;;;8.95;100.00
50087;BME280;35967;50.718;7.050;2023-04-07T11:03:12;100852.94;;;9.14;100.00
50087;BME280;35967;50.718;7.050;2023-04-07T11:13:16;100856.28;;;9.21;100.00
50087;BME280;35967;50.718;7.050;2023-04-07T11:23:21;100864.00;;;9.20;100.00
50087;BME280;35967;50.718;7.050;2023-04-07T11:33:29;100877.66;;;9.25;100.00
50087;BME280;35967;50.718;7.050;2023-04-07T11:43:34;100882.75;;;9.26;100.00
50087;BME280;35967;50.718;7.050;2023-04-07T11:53:38;100891.03;;;9.49;100.00
50087;BME280;35967;50.718;7.050;2023-04-07T12:03:56;100900.53;;;9.42;100.00
50087;BME280;35967;50.718;7.050;2023-04-07T12:14:01;100910.88;;;9.34;100.00
50087;BME280;35967;50.718;7.050;2023-04-07T12:24:07;100913.66;;;9.20;100.00
50087;BME280;35967;50.718;7.050;2023-04-07T12:34:10;100917.44;;;9.58;100.00
50087;BME280;35967;50.718;7.050;2023-04-07T12:44:15;100913.94;;;9.64;100.00
50087;BME280;35967;50.718;7.050;2023-04-07T12:54:18;100926.63;;;9.75;100.00
50087;BME280;35967;50.718;7.050;2023-04-07T13:04:23;100923.72;;;9.97;100.00
50087;BME280;35967;50.718;7.050;2023-04-07T13:14:27;100921.03;;;10.06;100.00
50087;BME280;35967;50.718;7.050;2023-04-07T13:24:32;100930.84;;;9.81;100.00
50087;BME280;35967;50.718;7.050;2023-04-07T13:34:35;100936.06;;;9.74;100.00
50087;BME280;35967;50.718;7.050;2023-04-07T13:44:40;100940.56;;;10.18;100.00
50087;BME280;35967;50.718;7.050;2023-04-07T13:54:46;100932.06;;;10.13;100.00
50087;BME280;35967;50.718;7.050;2023-04-07T14:04:51;100926.16;;;10.06;100.00
50087;BME280;35967;50.718;7.050;2023-04-07T14:14:54;100930.78;;;10.41;100.00
50087;BME280;35967;50.718;7.050;2023-04-07T14:25:00;100923.56;;;10.61;100.00
50087;BME280;35967;50.718;7.050;2023-04-07T14:35:05;100922.13;;;10.44;100.00
50087;BME280;35967;50.718;7.050;2023-04-07T14:45:10;100930.25;;;10.19;100.00
50087;BME280;35967;50.718;7.050;2023-04-07T14:55:13;100935.94;;;10.40;100.00
50087;BME280;35967;50.718;7.050;2023-04-07T15:05:18;100945.19;;;10.50;100.00
50087;BME280;35967;50.718;7.050;2023-04-07T15:15:42;100944.28;;;10.54;100.00
50087;BME280;35967;50.718;7.050;2023-04-07T15:25:47;100947.84;;;10.46;100.00
50087;BME280;35967;50.718;7.050;2023-04-07T15:35:52;100955.72;;;10.38;100.00
50087;BME280;35967;50.718;7.050;2023-04-07T15:45:56;100956.53;;;10.38;100.00
50087;BME280;35967;50.718;7.050;2023-04-07T15:55:59;100971.00;;;10.46;100.00
50087;BME280;35967;50.718;7.050;2023-04-07T16:06:04;100973.00;;;10.28;100.00
50087;BME280;35967;50.718;7.050;2023-04-07T16:16:07;100979.97;;;10.18;100.00
50087;BME280;35967;50.718;7.050;2023-04-07T16:26:12;100980.16;;;10.07;100.00
50087;BME280;35967;50.718;7.050;2023-04-07T16:36:15;100995.78;;;9.95;100.00
50087;BME280;35967;50.718;7.050;2023-04-07T16:46:20;101003.63;;;9.84;100.00
50087;BME280;35967;50.718;7.050;2023-04-07T16:56:27;101015.81;;;9.71;100.00
50087;BME280;35967;50.718;7.050;2023-04-07T17:06:31;101022.59;;;9.77;100.00
50087;BME280;35967;50.718;7.050;2023-04-07T17:16:34;101037.84;;;9.89;100.00
50087;BME280;35967;50.718;7.050;2023-04-07T17:26:39;101056.66;;;9.93;100.00
50087;BME280;35967;50.718;7.050;2023-04-07T17:36:42;101065.34;;;9.84;100.00
50087;BME280;35967;50.718;7.050;2023-04-07T17:46:46;101074.84;;;9.77;100.00
50087;BME280;35967;50.718;7.050;2023-04-07T17:56:51;101083.47;;;9.72;100.00
50087;BME280;35967;50.718;7.050;2023-04-07T18:06:55;101088.63;;;9.72;100.00
50087;BME280;35967;50.718;7.050;2023-04-07T18:16:58;101099.84;;;9.65;100.00
50087;BME280;35967;50.718;7.050;2023-04-07T18:27:03;101117.13;;;9.53;100.00
50087;BME280;35967;50.718;7.050;2023-04-07T18:37:06;101134.22;;;9.53;100.00
50087;BME280;35967;50.718;7.050;2023-04-07T18:47:10;101151.31;;;9.58;100.00
50087;BME280;35967;50.718;7.050;2023-04-07T18:57:14;101164.25;;;9.49;100.00
50087;BME280;35967;50.718;7.050;2023-04-07T19:07:18;101171.91;;;9.54;100.00
50087;BME280;35967;50.718;7.050;2023-04-07T19:17:21;101177.06;;;9.54;100.00
50087;BME280;35967;50.718;7.050;2023-04-07T19:27:26;101186.47;;;9.55;100.00
50087;BME280;35967;50.718;7.050;2023-04-07T19:37:29;101201.91;;;9.52;100.00
50087;BME280;35967;50.718;7.050;2023-04-07T19:47:33;101210.53;;;9.47;100.00
50087;BME280;35967;50.718;7.050;2023-04-07T19:57:37;101206.38;;;10.18;100.00
50087;BME280;35967;50.718;7.050;2023-04-07T20:07:42;101223.38;;;9.46;100.00
50087;BME280;35967;50.718;7.050;2023-04-07T20:17:45;101221.81;;;9.28;100.00
50087;BME280;35967;50.718;7.050;2023-04-07T20:27:50;101230.38;;;9.30;100.00
50087;BME280;35967;50.718;7.050;2023-04-07T20:37:53;101238.94;;;9.32;100.00
50087;BME280;35967;50.718;7.050;2023-04-07T20:47:57;101247.47;;;9.36;100.00
50087;BME280;35967;50.718;7.050;2023-04-07T20:58:01;101258.59;;;9.31;100.00
50087;BME280;35967;50.718;7.050;2023-04-07T21:08:05;101256.09;;;9.22;100.00
50087;BME280;35967;50.718;7.050;2023-04-07T21:18:08;101261.25;;;9.21;100.00
50087;BME280;35967;50.718;7.050;2023-04-07T21:28:13;101259.47;;;9.30;100.00
50087;BME280;35967;50.718;7.050;2023-04-07T21:38:16;101265.47;;;9.28;100.00
50087;BME280;35967;50.718;7.050;2023-04-07T21:48:21;101268.13;;;9.14;100.00
50087;BME280;35967;50.718;7.050;2023-04-07T21:58:24;101268.19;;;9.08;100.00
50087;BME280;35967;50.718;7.050;2023-04-07T22:08:28;101271.56;;;9.19;100.00
50087;BME280;35967;50.718;7.050;2023-04-07T22:18:32;101269.84;;;9.17;100.00
50087;BME280;35967;50.718;7.050;2023-04-07T22:28:36;101277.53;;;9.20;100.00
50087;BME280;35967;50.718;7.050;2023-04-07T22:38:39;101280.94;;;9.25;100.00
50087;BME280;35967;50.718;7.050;2023-04-07T22:48:44;101284.38;;;9.18;100.00
50087;BME280;35967;50.718;7.050;2023-04-07T22:58:47;101289.50;;;9.18;100.00
50087;BME280;35967;50.718;7.050;2023-04-07T23:08:53;101298.03;;;9.24;100.00
50087;BME280;35967;50.718;7.050;2023-04-07T23:18:57;101296.38;;;9.14;100.00
50087;BME280;35967;50.718;7.050;2023-04-07T23:29:01;101307.56;;;9.10;100.00
50087;BME280;35967;50.718;7.050;2023-04-07T23:39:05;101314.44;;;9.06;100.00
50087;BME280;35967;50.718;7.050;2023-04-07T23:49:09;101314.44;;;8.98;100.00
50087;BME280;35967;50.718;7.050;2023-04-07T23:59:12;101326.44;;;9.01;100.00
